x

West Lake Ontario - Grimsby (45139) Wave Buoy

11:00am - Wed 20th Sep 2017 All times are CDT. -5 hours from GMT.

  • Sig Wave height 0.7ft
  • Peak Period 3s
  • Wind
    7mph, 9mph gusts
  • Sea Temp 69°f
  • Air Temp 69°f
  • Sea Pressure 1017.4mb
  • West Lake Ontario - Grimsby
  • West Lake Ontario - Grimsby

More Historic Weather Station data

Upgrade to MSW Pro to gain access to the past 30 days of data for over 8000 Wavebouys and Weather Stations around the globe.

Join

Comparision Forecast

View Surf forecast
   
Wed 09/20 11:00am 0.7ft 3s 7 9 mph 1017.4mb 69f 69f
10:00am 0.7ft 3s 9 11 mph 1017.3mb 69f 69f
9:00am 0.7ft 3s 9 9 mph 1017.3mb 69f 69f
8:00am 0.7ft 3s 2 4 mph 1017.5mb 69f 69f
7:00am 0.7ft 3s 2 4 mph 1017mb 69f 67f
6:00am 0.7ft 3s 7 7 mph 1016.4mb 69f 68f
5:00am 0.7ft 3s 7 9 mph 1016mb 69f 69f
4:00am 0.7ft 3s 7 9 mph 1015.6mb 69f 69f
3:00am 0.7ft 3s 7 7 mph 1015.4mb 69f 69f
2:00am 0.7ft 3s 9 9 mph 1015.2mb 69f 69f
1:00am 0.7ft 3s 9 11 mph 1015.4mb 69f 69f
12:00am 0.7ft 2s 9 9 mph 1015.6mb 69f 69f
Tue 09/19 11:00pm 0.7ft 3s 4 7 mph 1015.3mb 69f 69f
10:00pm 0.3ft 2s 9 9 mph 1015.3mb 69f 70f
9:00pm 0.3ft 2s 7 9 mph 1015.5mb 69f 69f
8:00pm 0.3ft 2s 7 9 mph 1015.3mb 69f 69f
7:00pm 0.3ft 2s 4 4 mph 1015.5mb 70f 70f
6:00pm 0.3ft 2s 2 2 mph 1015mb 70f 70f
5:00pm 0.3ft 2s 2 4 mph 1014.8mb 70f 70f
4:00pm 0.3ft 2s 4 4 mph 1014.9mb 70f 70f
3:00pm 0.3ft 4s 7 7 mph 1014.7mb 71f 70f
2:00pm 0.3ft 2s 4 7 mph 1015.2mb 70f 68f
1:00pm 0.3ft 2s 4 7 mph 1015.8mb 70f 68f
12:00pm 0.3ft 2s 4 4 mph 1016.3mb 70f 67f
11:00am 0.3ft 2s 4 7 mph 1016.9mb 70f 68f
10:00am 0.3ft 2s 2 4 mph 1017.2mb 69f 70f
9:00am 0.3ft 2s 4 4 mph 1017mb 69f 69f
8:00am 0.3ft 2s 4 4 mph 1016.9mb 69f 68f
7:00am 0.3ft 2s 2 4 mph 1016.7mb 69f 69f
6:00am 0.3ft 2s 7 7 mph 1016.7mb 69f 69f
5:00am 0.3ft 2s 2 4 mph 1016.1mb 69f 68f
4:00am 0.3ft 2s 4 7 mph 1016.1mb 69f 68f
3:00am 0.3ft 2s 4 4 mph 1016.2mb 69f 68f
2:00am 0.3ft 2s 4 4 mph 1016mb 69f 68f
1:00am 0.3ft 2s 2 4 mph 1016.1mb 69f 69f
12:00am 0.3ft 2s 4 4 mph 1016.5mb 69f 69f
Mon 09/18 11:00pm 0.3ft 2s 4 7 mph 1016.9mb 69f 69f
10:00pm 0.3ft 2s 2 2 mph 1016.8mb 69f 70f
9:00pm 0.3ft 2s 4 4 mph 1016.8mb 69f 70f
8:00pm 0.3ft 2s 7 9 mph 1016.5mb 69f 70f
7:00pm 0.3ft 2s 4 4 mph 1016.5mb 69f 72f
6:00pm 0.3ft 2s 7 7 mph 1016.2mb 69f 72f
5:00pm 0.3ft 2s 7 7 mph 1016.2mb 70f 71f
4:00pm 0.3ft 4s 7 7 mph 1016.1mb 70f 71f
3:00pm 0.3ft 4s 7 9 mph 1016.5mb 70f 70f
2:00pm 0.3ft 4s 4 7 mph 1016.7mb 70f 70f
1:00pm 0.3ft 2s 4 4 mph 1017mb 70f 70f
12:00pm 0.3ft 2s 7 7 mph 1017.6mb 70f 70f
11:00am 0.3ft 2s 4 7 mph 1018.1mb 69f 70f
10:00am 0.3ft 2s 4 4 mph 1018.2mb 69f 69f
9:00am 0.3ft 2s 2 4 mph 1018.2mb 69f 66f
8:00am 0.3ft 4s 2 2 mph 1018.3mb 68f 66f
7:00am 0.3ft 4s  -  2 mph 1018.3mb 68f 66f
6:00am 0.3ft 2s 2 2 mph 1018.2mb 68f 66f
5:00am 0.3ft 2s  -  0 mph 1017.8mb 68f 67f
4:00am 0.3ft 5s 4 4 mph 1017.6mb 68f 67f
3:00am 0.3ft 2s  -  0 mph 1017.4mb 68f 67f
2:00am 0.3ft 5s 2 4 mph 1017.5mb 68f 67f
1:00am 0.3ft 3s 2 2 mph 1017.9mb 68f 67f
12:00am 0.3ft 2s  -  0 mph 1018.3mb 68f 67f
Sun 09/17 11:00pm 0.3ft 2s 2 2 mph 1018.1mb 68f 68f
10:00pm 0.3ft 2s 4 4 mph 1018.5mb 68f 68f
9:00pm 0.3ft 2s 4 4 mph 1018.5mb 68f 68f
8:00pm 0.3ft 2s 4 4 mph 1018.5mb 68f 69f
7:00pm 0.3ft 2s 4 4 mph 1018.1mb 69f 69f
6:00pm 0.3ft 2s 4 7 mph 1017.8mb 69f 70f
5:00pm 0.3ft 2s 7 9 mph 1017.7mb 69f 69f
4:00pm 0.3ft 2s 4 7 mph 1018.2mb 69f 69f
3:00pm 0.3ft 2s 4 7 mph 1018.4mb 69f 69f
2:00pm 0.3ft 2s 9 9 mph 1018.7mb 70f 69f
1:00pm 0.3ft 4s 7 7 mph 1019mb 70f 68f
12:00pm 0.3ft 4s 4 7 mph 1019.7mb 69f 69f
11:00am  -  2s 4 4 mph 1020.4mb 69f 68f
10:00am  -  4s 4 7 mph 1020.9mb 68f 66f
9:00am  -  4s 2 4 mph 1020.6mb 68f 66f
8:00am 0.3ft 5s 4 7 mph 1021mb 67f 66f
7:00am 0.3ft 4s 2 4 mph 1020.8mb 67f 66f
6:00am 0.3ft 4s 4 4 mph 1020.6mb 67f 66f
5:00am  -  2s 2 4 mph 1020.4mb 67f 66f
4:00am 0.3ft 3s 2 2 mph 1020.2mb 67f 67f
3:00am  -  3s 4 7 mph 1020.3mb 67f 67f
2:00am  -  3s 7 9 mph 1020.1mb 67f 67f
1:00am  -  4s 7 7 mph 1019.9mb 68f 67f
12:00am  -  3s 4 7 mph 1020.2mb 68f 67f
Sat 09/16 11:00pm  -  4s 2 4 mph 1020.6mb 68f 68f
10:00pm 0.3ft 3s 4 4 mph 1020.7mb 68f 69f
9:00pm  -  2s 4 7 mph 1020.5mb 68f 69f
8:00pm  -  3s 4 7 mph 1020.5mb 68f 70f
7:00pm 0.3ft 2s 7 7 mph 1020.3mb 69f 71f